LPCS

Details ICAO LPCS
Name CASCAIS
Region Portugal
Timezone Europe/Lisbon (UTC+0.0)
Plans Departing 136
Arriving 40
Stats Elevation 326 ft / 99 m (AMSL)
Location 38.725175° -9.355256°
Runways 1
Magnetic Variation 2.435° W
Sunrise 2017-12-14 07:49:05 UTC / 2017-12-14 07:49:05 Local
Sunset 2017-12-14 17:17:57 UTC / 2017-12-14 17:17:57 Local
Advertisement - Login to hide

Runways

ID Width Length Bearing (true) Bearing (mag) Surface Threshold Offset Overrun Length
17 98 ft / 30 m 5,664 ft / 1,726 m 164.14° 166.58° Asphalt 354 ft / 108 m 0 ft / 0 m
35 98 ft / 30 m 5,664 ft / 1,726 m 344.14° 346.58° Asphalt 574 ft / 175 m 0 ft / 0 m

Map

Weather


0- 5 10 15 20 25 30 35+ Temperature / ° C

Clouds and Precipitation
Forecast for 2017-12-15 00:00 UTC. Updated a few seconds ago

Ground ~20,000 ft ~40,000 ft Winds

METAR

LPCS 142000Z 28008KT 240V320 4000 -DZRA BR SCT004 BKN010 15/15 Q1022

TAF

Not found

Frequencies

Ground 121.82 MHz GND
Tower 119.90 MHz TWR
Tower 120.30 MHz TWR
Warning: Do not use this data for real-world aviation or navigation. No guarantee of current accuracy is given.